Time;durP1;ratioP1;P1;durP2;ratioP2;P2;SDS_P1;SDS_P2;PMS_P1;PMS_P2;Temp;Humidity;BMP_temperature;BMP_pressure;BME280_temperature;BME280_humidity;BME280_pressure;Samples;Min_cycle;Max_cycle;Signal;HPM_P1;HPM_P2
2023/07/19 00:00:07;;;;;;;3.50;1.60;;;17.00;99.90;;;;;;5080930;28;20123;-64
2023/07/19 00:02:33;;;;;;;4.93;1.67;;;17.00;99.90;;;;;;5080625;28;20789;-64
2023/07/19 00:04:59;;;;;;;4.35;1.85;;;17.00;99.90;;;;;;5063396;28;20053;-64
2023/07/19 00:07:25;;;;;;;3.75;1.60;;;17.00;99.90;;;;;;5080216;28;20040;-64
2023/07/19 00:09:51;;;;;;;7.03;1.60;;;17.00;99.90;;;;;;5081251;28;20039;-63
2023/07/19 00:12:16;;;;;;;4.18;1.65;;;17.00;99.90;;;;;;5082245;28;20465;-63
2023/07/19 00:14:42;;;;;;;5.32;1.52;;;17.00;99.90;;;;;;5063534;28;20157;-63
2023/07/19 00:17:08;;;;;;;4.20;1.88;;;17.00;99.90;;;;;;5080235;28;20109;-63
2023/07/19 00:19:34;;;;;;;4.43;1.95;;;16.90;99.90;;;;;;5080467;28;20044;-63
2023/07/19 00:22:00;;;;;;;3.83;2.05;;;17.00;99.90;;;;;;5081517;28;20079;-63
2023/07/19 00:24:25;;;;;;;5.38;2.70;;;16.90;99.90;;;;;;5063922;28;20042;-63
2023/07/19 00:26:51;;;;;;;4.95;2.13;;;16.90;99.90;;;;;;5097420;28;20072;-63
2023/07/19 00:29:17;;;;;;;3.88;1.77;;;16.90;99.90;;;;;;5079707;28;20035;-64
2023/07/19 00:31:43;;;;;;;3.58;2.00;;;16.90;99.90;;;;;;5096978;28;20047;-63
2023/07/19 00:34:09;;;;;;;4.65;1.90;;;16.90;99.90;;;;;;5079760;28;20113;-64
2023/07/19 00:36:36;;;;;;;2.90;1.60;;;16.90;99.90;;;;;;5081343;28;20128;-64
2023/07/19 00:39:03;;;;;;;5.13;1.88;;;16.90;99.90;;;;;;5063736;28;20362;-64
2023/07/19 00:41:28;;;;;;;5.97;1.90;;;16.90;99.90;;;;;;5079865;28;20071;-64
2023/07/19 00:43:55;;;;;;;4.80;1.85;;;16.90;99.90;;;;;;5079430;28;20063;-64
2023/07/19 00:46:21;;;;;;;5.85;2.13;;;16.90;99.90;;;;;;5079731;28;20458;-64
2023/07/19 00:48:47;;;;;;;3.60;1.77;;;16.90;99.90;;;;;;5079679;28;20032;-64
2023/07/19 00:51:13;;;;;;;3.38;1.40;;;16.90;99.90;;;;;;5079349;28;20044;-64
2023/07/19 00:53:39;;;;;;;3.78;1.70;;;16.90;99.90;;;;;;5097075;28;20122;-64
2023/07/19 00:56:07;;;;;;;4.85;1.83;;;16.90;99.90;;;;;;5062824;28;20052;-64
2023/07/19 00:58:35;;;;;;;4.00;1.75;;;16.90;99.90;;;;;;5062940;28;20127;-64
2023/07/19 01:01:01;;;;;;;4.55;1.48;;;16.90;99.90;;;;;;5079453;28;20082;-64
2023/07/19 01:03:27;;;;;;;4.10;1.60;;;16.80;99.90;;;;;;5062153;28;20043;-64
2023/07/19 01:05:53;;;;;;;3.63;1.42;;;16.80;99.90;;;;;;5079484;28;20097;-64
2023/07/19 01:08:19;;;;;;;3.22;1.67;;;16.80;99.90;;;;;;5079956;28;20293;-64
2023/07/19 01:10:46;;;;;;;4.95;1.67;;;16.80;99.90;;;;;;5062955;28;20036;-64
2023/07/19 01:13:12;;;;;;;5.13;1.45;;;16.80;99.90;;;;;;5095959;28;20286;-64
2023/07/19 01:15:40;;;;;;;3.65;1.30;;;16.80;99.90;;;;;;5078862;28;20521;-64
2023/07/19 01:18:06;;;;;;;3.38;1.45;;;16.80;99.90;;;;;;5096362;28;20543;-64
2023/07/19 01:20:36;;;;;;;4.10;1.90;;;16.70;99.90;;;;;;5079135;28;20083;-64
2023/07/19 01:23:03;;;;;;;3.67;1.92;;;16.70;99.90;;;;;;5079273;28;20062;-64
2023/07/19 01:25:28;;;;;;;4.15;1.70;;;16.70;99.90;;;;;;5061889;28;20048;-64
2023/07/19 01:27:54;;;;;;;3.00;1.60;;;16.70;99.90;;;;;;5079018;28;20046;-63
2023/07/19 01:30:20;;;;;;;3.10;1.60;;;16.70;99.90;;;;;;5078732;28;20043;-64
2023/07/19 01:32:46;;;;;;;4.88;2.03;;;16.80;99.90;;;;;;5080200;28;20426;-64
2023/07/19 01:35:11;;;;;;;5.50;1.63;;;16.80;99.90;;;;;;5079837;28;20237;-65
2023/07/19 01:37:37;;;;;;;3.05;1.50;;;16.80;99.90;;;;;;5079110;28;20119;-65
2023/07/19 01:40:05;;;;;;;2.97;1.90;;;16.80;99.90;;;;;;5078874;28;20036;-64
2023/07/19 01:42:30;;;;;;;4.45;2.00;;;16.80;99.90;;;;;;5078191;28;20087;-64
2023/07/19 01:44:57;;;;;;;4.57;2.20;;;16.80;99.90;;;;;;5078714;28;20343;-64
2023/07/19 01:47:22;;;;;;;7.90;2.15;;;16.80;99.90;;;;;;5061992;28;20697;-64
2023/07/19 01:49:48;;;;;;;4.55;1.88;;;16.80;99.90;;;;;;5061804;28;20122;-63
2023/07/19 01:52:15;;;;;;;5.53;2.25;;;16.90;99.90;;;;;;5079022;28;20510;-64
2023/07/19 01:54:41;;;;;;;2.95;1.50;;;16.90;99.90;;;;;;5080433;28;20385;-65
2023/07/19 01:57:06;;;;;;;5.28;1.63;;;16.90;99.90;;;;;;5061388;28;20120;-64
2023/07/19 01:59:32;;;;;;;3.45;2.00;;;16.90;99.90;;;;;;5095020;28;20422;-65
2023/07/19 02:01:58;;;;;;;4.15;1.83;;;16.90;99.90;;;;;;5078282;28;20182;-64
2023/07/19 02:04:24;;;;;;;4.43;2.13;;;16.90;99.90;;;;;;5078317;28;20044;-64
2023/07/19 02:06:49;;;;;;;5.18;1.52;;;16.90;99.90;;;;;;5079188;28;20048;-65
2023/07/19 02:09:15;;;;;;;4.60;1.67;;;16.90;99.90;;;;;;5095091;28;20549;-64
2023/07/19 02:11:41;;;;;;;6.95;1.65;;;16.90;99.90;;;;;;5078524;28;20052;-64
2023/07/19 02:14:07;;;;;;;3.53;1.75;;;16.90;99.90;;;;;;5078375;28;20519;-64
2023/07/19 02:16:34;;;;;;;6.82;1.58;;;16.90;99.90;;;;;;5095132;28;20059;-64
2023/07/19 02:19:00;;;;;;;3.28;1.63;;;16.80;99.90;;;;;;5079589;28;20040;-64
2023/07/19 02:21:26;;;;;;;3.88;2.20;;;16.80;99.90;;;;;;5078596;28;20059;-63
2023/07/19 02:23:52;;;;;;;4.88;2.00;;;16.80;99.90;;;;;;5079057;28;20048;-63
2023/07/19 02:26:18;;;;;;;3.78;1.90;;;16.70;99.90;;;;;;5079526;28;20606;-64
2023/07/19 02:28:43;;;;;;;6.18;2.15;;;16.70;99.90;;;;;;5078372;28;20350;-63
2023/07/19 02:31:09;;;;;;;3.72;2.40;;;16.70;99.90;;;;;;5077847;28;20032;-63
2023/07/19 02:33:35;;;;;;;5.38;2.60;;;16.70;99.90;;;;;;5077772;28;20336;-64
2023/07/19 02:36:00;;;;;;;4.57;2.30;;;16.60;99.90;;;;;;5078779;28;20158;-64
2023/07/19 02:38:26;;;;;;;5.28;2.80;;;16.60;99.90;;;;;;5078318;28;20040;-65
2023/07/19 02:40:58;;;;;;;4.63;2.55;;;16.60;99.90;;;;;;5078131;28;20375;-64
2023/07/19 02:43:24;;;;;;;5.53;2.75;;;16.60;99.90;;;;;;5079129;28;20059;-65
2023/07/19 02:45:52;;;;;;;8.18;3.13;;;16.60;99.90;;;;;;5077974;28;20319;-64
2023/07/19 02:48:18;;;;;;;7.13;3.28;;;16.60;99.90;;;;;;5079355;28;20555;-64
2023/07/19 02:50:45;;;;;;;5.18;3.40;;;16.60;99.90;;;;;;5061804;28;20040;-64
2023/07/19 02:53:11;;;;;;;8.32;3.40;;;16.60;99.90;;;;;;5061082;28;20604;-64
2023/07/19 02:55:37;;;;;;;6.47;3.55;;;16.60;99.90;;;;;;5078249;28;20040;-64
2023/07/19 02:58:03;;;;;;;7.03;3.80;;;16.60;99.90;;;;;;5060849;28;20048;-64
2023/07/19 03:00:28;;;;;;;7.43;3.83;;;16.50;99.90;;;;;;5078136;28;20044;-64
2023/07/19 03:02:55;;;;;;;7.22;4.18;;;16.50;99.90;;;;;;5077943;28;20055;-64
2023/07/19 03:05:22;;;;;;;9.05;5.05;;;16.40;99.90;;;;;;5060844;28;20040;-64
2023/07/19 03:07:48;;;;;;;11.05;5.20;;;16.30;99.90;;;;;;5077986;28;20127;-64
2023/07/19 03:10:13;;;;;;;6.22;4.15;;;16.30;99.90;;;;;;5061348;28;20052;-64
2023/07/19 03:12:39;;;;;;;10.27;4.97;;;16.30;99.90;;;;;;5080888;28;20225;-65
2023/07/19 03:15:05;;;;;;;9.48;5.72;;;16.20;99.90;;;;;;5064630;28;20283;-64
2023/07/19 03:17:31;;;;;;;7.80;5.10;;;16.20;99.90;;;;;;5064690;28;20052;-63
2023/07/19 03:19:57;;;;;;;7.05;5.15;;;16.10;99.90;;;;;;5081975;28;20056;-63
2023/07/19 03:22:22;;;;;;;9.50;5.57;;;16.10;99.90;;;;;;5081664;28;20032;-63
2023/07/19 03:24:49;;;;;;;6.47;5.63;;;16.10;99.90;;;;;;5081444;28;20105;-62
2023/07/19 03:27:15;;;;;;;8.25;5.78;;;16.00;99.90;;;;;;5080773;28;20052;-63
2023/07/19 03:29:40;;;;;;;8.85;6.60;;;16.00;99.90;;;;;;5081848;28;20040;-63
2023/07/19 03:32:07;;;;;;;8.43;6.35;;;16.00;99.90;;;;;;5081150;28;20136;-64
2023/07/19 03:34:33;;;;;;;11.35;6.88;;;15.90;99.90;;;;;;5081931;28;20082;-63
2023/07/19 03:36:59;;;;;;;7.22;6.45;;;15.90;99.90;;;;;;5099000;28;20478;-63
2023/07/19 03:39:24;;;;;;;9.18;6.57;;;15.90;99.90;;;;;;5064506;28;20050;-63
2023/07/19 03:41:50;;;;;;;8.63;6.82;;;16.00;99.90;;;;;;5081046;28;20402;-63
2023/07/19 03:44:17;;;;;;;9.40;6.15;;;15.90;99.90;;;;;;5063910;28;20087;-63
2023/07/19 03:46:43;;;;;;;7.13;6.32;;;15.90;99.90;;;;;;5080814;28;20054;-63
2023/07/19 03:49:08;;;;;;;9.00;6.65;;;15.90;99.90;;;;;;5064168;28;20036;-63
2023/07/19 03:51:34;;;;;;;11.48;6.82;;;15.90;99.90;;;;;;5098252;28;20120;-63
2023/07/19 03:54:00;;;;;;;10.95;6.60;;;15.90;99.90;;;;;;5097685;28;20486;-63
2023/07/19 03:56:25;;;;;;;12.13;6.95;;;15.90;99.90;;;;;;5082273;28;20036;-63
2023/07/19 03:58:51;;;;;;;11.98;7.18;;;15.90;99.90;;;;;;5080729;28;20228;-63
2023/07/19 04:01:17;;;;;;;9.55;7.47;;;15.90;99.90;;;;;;5080794;28;20440;-63
2023/07/19 04:03:43;;;;;;;10.68;6.90;;;15.90;99.90;;;;;;5080854;28;20275;-64
2023/07/19 04:06:09;;;;;;;8.38;6.60;;;15.90;99.90;;;;;;5080836;28;20243;-64
2023/07/19 04:08:34;;;;;;;10.15;7.70;;;15.90;99.90;;;;;;5064447;28;20056;-64
2023/07/19 04:11:00;;;;;;;10.70;7.80;;;15.90;99.90;;;;;;5064112;28;20132;-64
2023/07/19 04:13:29;;;;;;;10.07;8.27;;;15.90;99.90;;;;;;5080460;28;20047;-63
2023/07/19 04:15:55;;;;;;;11.73;7.60;;;15.90;99.90;;;;;;5080615;28;20047;-63
2023/07/19 04:18:21;;;;;;;10.40;8.18;;;15.90;99.90;;;;;;5080512;28;20048;-63
2023/07/19 04:20:54;;;;;;;9.38;7.45;;;15.90;99.90;;;;;;5080710;28;20709;-63
2023/07/19 04:23:20;;;;;;;11.88;7.80;;;15.90;99.90;;;;;;5096045;28;20508;-63
2023/07/19 04:25:45;;;;;;;11.80;7.95;;;16.00;99.90;;;;;;5080124;28;20040;-63
2023/07/19 04:28:11;;;;;;;10.70;7.60;;;16.00;99.90;;;;;;5080112;28;20050;-63
2023/07/19 04:30:37;;;;;;;13.20;8.13;;;16.00;99.90;;;;;;5046476;28;20138;-64
2023/07/19 04:33:04;;;;;;;15.07;8.43;;;16.00;99.90;;;;;;5080311;28;20051;-64
2023/07/19 04:35:30;;;;;;;11.27;7.70;;;16.10;99.90;;;;;;5063800;28;20054;-64
2023/07/19 04:37:55;;;;;;;9.05;7.80;;;16.10;99.90;;;;;;5079727;28;20044;-64
2023/07/19 04:40:21;;;;;;;13.65;8.10;;;16.20;99.90;;;;;;5079696;28;20405;-63
2023/07/19 04:42:49;;;;;;;10.07;8.13;;;16.20;99.90;;;;;;5079425;28;20052;-63
2023/07/19 04:45:14;;;;;;;12.40;7.82;;;16.20;99.90;;;;;;5096634;28;20170;-63
2023/07/19 04:47:40;;;;;;;11.68;8.82;;;16.40;99.90;;;;;;5079700;28;20772;-63
2023/07/19 04:50:08;;;;;;;9.60;8.00;;;16.40;99.90;;;;;;5079783;28;20032;-63
2023/07/19 04:52:34;;;;;;;8.45;7.53;;;16.40;99.90;;;;;;5079404;28;20047;-62
2023/07/19 04:55:02;;;;;;;12.45;8.13;;;16.40;99.90;;;;;;5079261;28;20445;-63
2023/07/19 04:57:27;;;;;;;12.32;7.53;;;16.40;99.90;;;;;;5095722;28;20358;-63
2023/07/19 04:59:53;;;;;;;13.43;8.00;;;16.50;99.90;;;;;;5079368;28;20592;-62
2023/07/19 05:02:19;;;;;;;9.55;7.57;;;16.60;99.90;;;;;;5062650;28;20337;-62
2023/07/19 05:04:44;;;;;;;10.80;7.93;;;16.60;99.90;;;;;;5062506;28;20036;-63
2023/07/19 05:07:10;;;;;;;10.57;8.38;;;16.70;99.90;;;;;;5062240;28;20067;-63
2023/07/19 05:09:36;;;;;;;10.98;8.05;;;16.70;99.90;;;;;;5096030;28;20090;-62
2023/07/19 05:12:02;;;;;;;11.35;7.45;;;16.80;99.90;;;;;;5078704;28;20051;-63
2023/07/19 05:14:29;;;;;;;12.27;7.30;;;16.80;99.90;;;;;;5095936;28;20044;-63
2023/07/19 05:16:55;;;;;;;8.25;7.43;;;16.80;99.90;;;;;;5078974;28;20040;-63
2023/07/19 05:19:20;;;;;;;11.98;7.53;;;16.80;99.90;;;;;;5079261;28;20413;-63
2023/07/19 05:21:46;;;;;;;8.93;7.57;;;16.80;99.90;;;;;;5078728;28;20474;-63
2023/07/19 05:24:12;;;;;;;9.60;7.55;;;16.90;99.90;;;;;;5078436;28;20043;-63
2023/07/19 05:26:39;;;;;;;10.57;7.55;;;16.90;99.90;;;;;;5078673;28;20044;-63
2023/07/19 05:29:05;;;;;;;9.40;7.22;;;17.00;99.90;;;;;;5078370;28;20096;-63
2023/07/19 05:31:31;;;;;;;8.23;6.60;;;17.10;99.90;;;;;;5044947;28;20057;-64
2023/07/19 05:33:57;;;;;;;12.85;6.97;;;17.20;99.90;;;;;;5062295;28;20052;-64
2023/07/19 05:36:23;;;;;;;7.30;6.60;;;17.30;99.90;;;;;;5078007;28;20051;-63
2023/07/19 05:38:48;;;;;;;9.02;6.78;;;17.30;99.90;;;;;;5078587;28;20227;-63
2023/07/19 05:41:14;;;;;;;11.68;6.97;;;17.30;99.90;;;;;;5061449;28;20043;-64
2023/07/19 05:43:39;;;;;;;9.38;6.65;;;17.40;99.90;;;;;;5061320;28;20052;-63
2023/07/19 05:46:07;;;;;;;9.15;7.07;;;17.40;99.90;;;;;;5078873;28;20136;-64
2023/07/19 05:48:33;;;;;;;9.15;6.22;;;17.40;99.90;;;;;;5062311;28;20307;-64
2023/07/19 05:51:04;;;;;;;7.45;6.63;;;17.30;99.90;;;;;;5078927;28;20115;-63
2023/07/19 05:53:30;;;;;;;8.63;6.10;;;17.30;99.90;;;;;;5061202;28;20454;-63
2023/07/19 05:55:57;;;;;;;11.85;6.53;;;17.30;99.90;;;;;;5061660;28;20036;-63
2023/07/19 05:58:23;;;;;;;7.10;6.18;;;17.10;99.90;;;;;;5078485;28;20096;-64
2023/07/19 06:00:49;;;;;;;9.18;6.07;;;17.20;99.90;;;;;;5062395;28;20044;-63
2023/07/19 06:03:16;;;;;;;10.30;6.25;;;17.10;99.90;;;;;;5061784;28;20444;-65
2023/07/19 06:05:43;;;;;;;8.25;6.90;;;17.10;99.90;;;;;;5078210;28;20040;-64
2023/07/19 06:08:09;;;;;;;8.80;6.97;;;17.10;99.90;;;;;;5095079;28;20043;-64
2023/07/19 06:10:35;;;;;;;6.85;5.90;;;17.00;99.90;;;;;;5061668;28;20363;-64
2023/07/19 06:13:03;;;;;;;13.70;6.88;;;17.00;99.90;;;;;;5061618;28;20051;-64
2023/07/19 06:15:30;;;;;;;9.13;6.40;;;17.00;99.90;;;;;;5061980;28;20531;-64
2023/07/19 06:17:56;;;;;;;8.85;7.00;;;17.10;99.90;;;;;;5078443;28;20040;-64
2023/07/19 06:20:22;;;;;;;15.00;6.78;;;17.10;99.90;;;;;;5061435;28;20510;-65
2023/07/19 06:22:47;;;;;;;7.40;6.45;;;17.20;99.90;;;;;;5094822;28;20067;-64
2023/07/19 06:25:14;;;;;;;8.30;6.70;;;17.20;99.90;;;;;;5061518;28;20414;-64
2023/07/19 06:27:40;;;;;;;10.20;6.70;;;17.20;99.90;;;;;;5061330;28;20044;-64
2023/07/19 06:30:06;;;;;;;8.55;6.25;;;17.30;99.90;;;;;;5062017;28;20047;-64
2023/07/19 06:32:32;;;;;;;7.65;6.20;;;17.20;99.90;;;;;;5078468;28;20059;-64
2023/07/19 06:34:58;;;;;;;11.13;6.30;;;17.20;99.90;;;;;;5077810;28;20036;-65
2023/07/19 06:37:23;;;;;;;8.68;5.88;;;17.20;99.90;;;;;;5094613;28;20109;-64
2023/07/19 06:39:50;;;;;;;7.78;5.13;;;17.20;99.90;;;;;;5061244;28;20056;-64
2023/07/19 06:42:16;;;;;;;8.15;4.75;;;17.10;99.90;;;;;;5077988;28;20051;-64
2023/07/19 06:44:41;;;;;;;5.80;4.80;;;17.10;99.90;;;;;;5061480;28;20577;-64
2023/07/19 06:47:07;;;;;;;5.80;4.20;;;17.00;99.90;;;;;;5080596;28;20085;-64
2023/07/19 06:49:33;;;;;;;6.90;3.47;;;17.00;99.90;;;;;;5081985;28;20148;-65
2023/07/19 06:51:58;;;;;;;4.80;2.95;;;16.90;99.90;;;;;;5082142;28;20115;-65
2023/07/19 06:54:24;;;;;;;6.47;3.17;;;16.90;99.90;;;;;;5099235;28;20039;-64
2023/07/19 06:56:50;;;;;;;6.18;3.03;;;16.90;99.90;;;;;;5065015;28;20051;-64
2023/07/19 06:59:15;;;;;;;5.68;2.75;;;16.90;99.90;;;;;;5065181;28;20075;-64
2023/07/19 07:01:41;;;;;;;7.03;2.40;;;16.90;99.90;;;;;;5082376;28;20362;-64
2023/07/19 07:04:08;;;;;;;7.22;2.80;;;16.90;99.90;;;;;;5081736;28;20277;-64
2023/07/19 07:06:34;;;;;;;5.32;2.50;;;17.00;99.90;;;;;;5081891;28;20044;-64
2023/07/19 07:09:00;;;;;;;4.10;2.15;;;17.00;99.90;;;;;;5081427;28;20537;-64
2023/07/19 07:11:25;;;;;;;6.43;2.63;;;17.00;99.90;;;;;;5047754;28;20068;-63
2023/07/19 07:13:51;;;;;;;4.18;1.90;;;17.20;99.90;;;;;;5064891;28;20477;-64
2023/07/19 07:16:17;;;;;;;4.55;2.00;;;17.30;99.90;;;;;;5065574;28;20198;-64
2023/07/19 07:18:43;;;;;;;3.20;1.90;;;17.40;99.90;;;;;;5081393;28;20498;-65
2023/07/19 07:21:09;;;;;;;4.18;1.90;;;17.30;99.90;;;;;;5081063;28;20127;-65
2023/07/19 07:23:34;;;;;;;3.63;1.67;;;17.40;99.90;;;;;;5064452;28;20459;-64
2023/07/19 07:26:00;;;;;;;5.88;2.20;;;17.40;99.90;;;;;;5081141;28;20048;-64
2023/07/19 07:28:26;;;;;;;4.05;1.70;;;17.40;99.90;;;;;;5098353;28;20510;-64
2023/07/19 07:30:52;;;;;;;3.22;1.65;;;17.40;99.90;;;;;;5064744;28;20036;-65
2023/07/19 07:33:19;;;;;;;4.93;2.00;;;17.50;99.90;;;;;;5064097;28;20120;-64
2023/07/19 07:35:46;;;;;;;6.07;2.08;;;17.50;99.90;;;;;;5080753;28;20402;-64
2023/07/19 07:38:12;;;;;;;4.80;1.63;;;17.60;99.90;;;;;;5081021;28;20036;-65
2023/07/19 07:40:38;;;;;;;6.03;2.15;;;17.70;99.90;;;;;;5080587;28;20163;-64
2023/07/19 07:43:03;;;;;;;8.45;1.92;;;17.70;99.90;;;;;;5080629;28;20052;-64
2023/07/19 07:45:29;;;;;;;5.82;2.00;;;17.80;99.90;;;;;;5064021;28;20040;-65
2023/07/19 07:47:54;;;;;;;7.32;1.95;;;17.80;99.90;;;;;;5080948;28;20347;-64
2023/07/19 07:50:22;;;;;;;5.35;2.25;;;18.00;99.90;;;;;;5080623;28;20083;-65
2023/07/19 07:52:48;;;;;;;6.47;2.00;;;18.10;99.90;;;;;;5063930;28;20718;-63
2023/07/19 07:55:14;;;;;;;4.93;1.67;;;18.30;99.90;;;;;;5080291;28;20044;-65
2023/07/19 07:57:40;;;;;;;4.40;1.77;;;18.40;99.90;;;;;;5062825;28;20296;-64
2023/07/19 08:00:06;;;;;;;5.97;1.92;;;18.40;99.90;;;;;;5080446;28;20524;-65
2023/07/19 08:02:32;;;;;;;4.80;1.60;;;18.50;99.90;;;;;;5063754;28;20124;-64
2023/07/19 08:04:58;;;;;;;5.53;1.88;;;18.40;99.90;;;;;;5063369;28;20044;-64
2023/07/19 08:07:26;;;;;;;3.72;1.60;;;18.40;99.90;;;;;;5063437;28;20044;-64
2023/07/19 08:09:53;;;;;;;6.15;1.38;;;18.40;99.90;;;;;;5063526;28;20158;-64
2023/07/19 08:12:20;;;;;;;5.53;1.35;;;18.50;99.90;;;;;;5080252;28;20512;-64
2023/07/19 08:14:46;;;;;;;6.07;1.10;;;19.00;99.90;;;;;;5063746;28;20123;-64
2023/07/19 08:17:11;;;;;;;3.22;0.95;;;19.40;99.90;;;;;;5080089;28;20134;-64
2023/07/19 08:19:38;;;;;;;4.47;1.30;;;19.50;99.90;;;;;;5080472;28;20039;-64
2023/07/19 08:22:05;;;;;;;2.90;1.38;;;19.70;99.90;;;;;;5080018;28;20443;-64
2023/07/19 08:24:31;;;;;;;4.40;1.20;;;20.10;99.90;;;;;;5080483;28;20486;-64
2023/07/19 08:26:58;;;;;;;3.25;1.13;;;20.30;99.90;;;;;;5096932;28;20028;-64
2023/07/19 08:29:26;;;;;;;3.88;1.20;;;20.60;99.90;;;;;;5080323;28;20075;-64
2023/07/19 08:31:51;;;;;;;3.90;1.00;;;20.80;99.90;;;;;;5079880;28;20055;-64
2023/07/19 08:34:18;;;;;;;4.93;1.10;;;20.70;99.90;;;;;;5062993;28;20046;-64
2023/07/19 08:36:43;;;;;;;5.15;1.40;;;20.80;99.90;;;;;;5081323;28;20465;-64
2023/07/19 08:39:09;;;;;;;5.47;0.40;;;20.90;99.90;;;;;;5079740;28;20036;-64
2023/07/19 08:41:35;;;;;;;2.63;0.40;;;20.80;99.90;;;;;;5079717;28;20036;-64
2023/07/19 08:44:01;;;;;;;2.55;0.40;;;20.30;99.90;;;;;;5097137;28;20520;-64
2023/07/19 08:46:27;;;;;;;3.20;0.40;;;19.90;99.90;;;;;;5063051;28;20059;-64
2023/07/19 08:48:52;;;;;;;4.28;1.05;;;19.60;99.90;;;;;;5079692;28;20115;-64
2023/07/19 08:51:18;;;;;;;3.67;0.50;;;19.40;99.90;;;;;;5079592;28;20073;-64
2023/07/19 08:53:45;;;;;;;3.25;0.65;;;19.20;99.90;;;;;;5096392;28;20676;-64
2023/07/19 08:56:14;;;;;;;2.88;0.80;;;19.10;99.90;;;;;;5096129;28;20047;-64
2023/07/19 08:58:43;;;;;;;3.95;0.70;;;19.00;99.90;;;;;;5080009;28;20079;-64
2023/07/19 09:01:09;;;;;;;4.15;0.60;;;18.70;99.90;;;;;;5079128;28;20166;-64
2023/07/19 09:03:35;;;;;;;4.68;0.77;;;18.80;99.90;;;;;;5078819;28;20079;-63
2023/07/19 09:06:01;;;;;;;1.65;0.50;;;18.80;99.90;;;;;;5079268;28;20043;-64
2023/07/19 09:08:37;;;;;;;2.53;0.40;;;19.30;99.90;;;;;;5079470;28;20039;-63
2023/07/19 09:11:04;;;;;;;3.13;0.38;;;19.90;99.90;;;;;;5096566;28;20047;-64
2023/07/19 09:13:35;;;;;;;1.95;0.25;;;20.30;99.90;;;;;;5078697;28;20044;-64
2023/07/19 09:16:03;;;;;;;1.55;0.20;;;20.20;99.90;;;;;;5095952;28;20052;-63
2023/07/19 09:18:35;;;;;;;3.47;0.30;;;20.50;99.90;;;;;;5078553;28;20501;-63
2023/07/19 09:21:05;;;;;;;2.20;0.20;;;20.60;99.90;;;;;;5096409;28;20313;-63
2023/07/19 09:23:36;;;;;;;2.08;0.25;;;20.40;99.90;;;;;;5079266;28;20044;-64
2023/07/19 09:26:03;;;;;;;1.77;0.20;;;20.80;99.90;;;;;;5045330;28;20075;-63
2023/07/19 09:28:29;;;;;;;2.42;0.30;;;21.20;99.90;;;;;;5078733;28;20388;-64
2023/07/19 09:30:56;;;;;;;2.40;0.30;;;21.30;99.90;;;;;;5095565;28;20040;-64
2023/07/19 09:33:22;;;;;;;2.50;0.20;;;21.80;99.90;;;;;;5078608;28;20044;-64
2023/07/19 09:35:54;;;;;;;2.80;0.30;;;21.80;77.30;;;;;;5062130;28;20097;-64
2023/07/19 09:38:21;;;;;;;0.75;0.20;;;21.50;90.10;;;;;;5078674;28;20498;-64
2023/07/19 09:40:46;;;;;;;2.75;0.30;;;21.00;99.90;;;;;;5079082;28;20075;-64
2023/07/19 09:43:16;;;;;;;3.17;0.32;;;20.80;99.90;;;;;;5061363;28;20144;-64
2023/07/19 09:45:44;;;;;;;1.63;0.20;;;20.70;99.90;;;;;;5080391;28;20467;-64
2023/07/19 09:48:10;;;;;;;2.10;0.20;;;20.50;96.70;;;;;;5079588;28;20518;-64
2023/07/19 09:50:39;;;;;;;3.45;0.30;;;20.70;97.60;;;;;;5078826;28;20036;-64
2023/07/19 09:53:08;;;;;;;1.98;0.68;;;20.20;99.90;;;;;;5061312;28;20044;-65
2023/07/19 09:55:35;;;;;;;1.38;0.20;;;20.20;99.90;;;;;;5079969;28;20052;-64
2023/07/19 09:58:03;;;;;;;2.13;0.35;;;20.40;99.90;;;;;;5095065;28;20120;-63
2023/07/19 10:00:29;;;;;;;2.45;0.20;;;20.30;97.60;;;;;;5062183;28;20051;-64
2023/07/19 10:02:58;;;;;;;1.63;0.20;;;21.20;91.80;;;;;;5095607;28;20144;-62
2023/07/19 10:05:28;;;;;;;0.90;0.17;;;21.20;63.50;;;;;;5094754;28;20039;-62
2023/07/19 10:08:04;;;;;;;1.25;0.20;;;21.20;60.20;;;;;;5061462;28;20549;-62
2023/07/19 10:10:41;;;;;;;2.10;0.20;;;21.40;48.80;;;;;;5095383;28;20050;-63
2023/07/19 10:13:07;;;;;;;2.05;0.20;;;21.40;35.80;;;;;;5079202;28;20040;-62
2023/07/19 10:15:35;;;;;;;1.25;0.20;;;21.10;57.60;;;;;;5079398;28;20119;-62
2023/07/19 10:18:02;;;;;;;1.15;0.20;;;21.00;41.10;;;;;;5078135;28;20409;-62
2023/07/19 10:20:35;;;;;;;0.82;0.10;;;21.20;48.50;;;;;;5077935;28;20055;-62
2023/07/19 10:23:04;;;;;;;3.03;0.20;;;21.00;51.00;;;;;;5082364;28;20357;-62
2023/07/19 10:25:36;;;;;;;1.60;0.20;;;21.40;70.20;;;;;;5099414;28;20469;-62
2023/07/19 10:28:10;;;;;;;0.90;0.20;;;21.80;28.90;;;;;;5082132;28;20131;-61
2023/07/19 10:30:44;;;;;;;1.90;0.20;;;22.20;20.90;;;;;;5083959;28;20392;-61
2023/07/19 10:33:15;;;;;;;1.02;0.20;;;21.60;3.40;;;;;;5084033;28;20043;-63
2023/07/19 10:35:42;;;;;;;0.95;0.10;;;21.70;6.90;;;;;;5065073;28;20097;-63
2023/07/19 10:38:18;;;;;;;0.98;0.20;;;21.60;18.60;;;;;;5065294;28;20490;-63
2023/07/19 10:40:52;;;;;;;1.75;0.20;;;21.80;7.50;;;;;;5081917;28;20052;-62
2023/07/19 10:43:18;;;;;;;2.50;0.20;;;21.40;22.00;;;;;;5081823;28;20071;-62
2023/07/19 10:45:44;;;;;;;1.48;0.28;;;22.10;18.90;;;;;;5090471;28;20105;-62
2023/07/19 10:48:10;;;;;;;1.88;0.17;;;21.70;12.10;;;;;;5090195;28;20343;-62
2023/07/19 10:50:36;;;;;;;0.88;0.10;;;21.40;17.90;;;;;;5089729;28;20123;-62
2023/07/19 10:53:02;;;;;;;1.10;0.10;;;21.50;29.40;;;;;;5107595;28;20086;-62
2023/07/19 10:55:28;;;;;;;0.88;0.17;;;21.90;18.60;;;;;;5072925;28;20691;-62
2023/07/19 10:57:56;;;;;;;1.40;0.20;;;22.00;6.40;;;;;;5090248;28;20502;-62
2023/07/19 11:00:23;;;;;;;0.95;0.10;;;21.20;29.60;;;;;;5089857;28;20050;-62
2023/07/19 11:02:51;;;;;;;2.53;0.10;;;21.50;23.10;;;;;;5090343;28;20040;-62
2023/07/19 11:05:16;;;;;;;1.15;0.20;;;21.40;14.00;;;;;;5107741;28;20036;-62
2023/07/19 11:07:42;;;;;;;1.08;0.10;;;21.50;12.60;;;;;;5073969;28;20047;-62
2023/07/19 11:10:09;;;;;;;1.45;0.10;;;21.70;10.60;;;;;;5091412;28;20322;-62
2023/07/19 11:12:34;;;;;;;1.20;0.10;;;21.30;14.90;;;;;;5091956;28;20393;-62
2023/07/19 11:15:01;;;;;;;1.40;0.10;;;21.30;14.00;;;;;;5089885;28;20047;-62
2023/07/19 11:17:30;;;;;;;0.65;0.20;;;21.20;13.70;;;;;;5090043;28;20047;-62
2023/07/19 11:19:57;;;;;;;0.70;0.20;;;21.70;10.80;;;;;;5091539;28;20127;-62
2023/07/19 11:22:25;;;;;;;0.50;0.10;;;22.10;1.00;;;;;;5091157;28;20036;-62
2023/07/19 11:24:53;;;;;;;1.17;0.10;;;22.40;1.00;;;;;;5091064;28;20600;-62
2023/07/19 11:27:31;;;;;;;1.63;0.10;;;21.90;1.00;;;;;;5090433;28;20075;-62
2023/07/19 11:29:57;;;;;;;1.40;0.10;;;21.80;1.00;;;;;;5091297;28;20043;-63
2023/07/19 11:32:23;;;;;;;1.35;0.20;;;21.60;1.00;;;;;;5089499;28;20036;-63
2023/07/19 11:34:49;;;;;;;0.75;0.20;;;21.50;1.00;;;;;;5090481;28;20150;-63
2023/07/19 11:37:20;;;;;;;0.60;0.10;;;21.20;1.00;;;;;;5089590;28;20493;-62
2023/07/19 11:39:50;;;;;;;1.02;0.20;;;22.20;1.00;;;;;;5073330;28;20131;-61
2023/07/19 11:42:41;;;;;;;0.65;0.10;;;22.10;1.00;;;;;;5105825;28;20036;-62
2023/07/19 11:45:09;;;;;;;1.67;0.10;;;22.20;1.00;;;;;;5089880;28;20048;-62
2023/07/19 11:47:34;;;;;;;1.00;0.10;;;22.70;1.00;;;;;;5090112;28;20040;-61
2023/07/19 11:50:00;;;;;;;1.38;0.10;;;23.00;1.00;;;;;;5089733;28;20509;-62
2023/07/19 11:52:26;;;;;;;0.60;0.10;;;22.50;1.00;;;;;;5089259;28;20127;-63
2023/07/19 11:54:52;;;;;;;1.23;0.10;;;22.30;1.00;;;;;;5073093;28;20048;-63
2023/07/19 11:57:18;;;;;;;0.93;0.10;;;22.10;1.00;;;;;;5089233;28;20126;-63
2023/07/19 11:59:44;;;;;;;0.65;0.10;;;22.20;1.00;;;;;;5089425;28;20370;-62
2023/07/19 12:02:10;;;;;;;2.70;0.10;;;22.10;1.00;;;;;;5090404;28;20109;-62
2023/07/19 12:04:36;;;;;;;0.63;0.10;;;22.70;1.00;;;;;;5073669;28;20051;-62
2023/07/19 12:07:03;;;;;;;0.85;0.20;;;22.70;1.00;;;;;;5089560;28;20040;-62
2023/07/19 12:09:28;;;;;;;1.10;0.20;;;22.50;1.00;;;;;;5089518;28;20100;-62
2023/07/19 12:11:54;;;;;;;1.13;0.20;;;22.30;1.00;;;;;;5088661;28;20474;-62
2023/07/19 12:14:20;;;;;;;1.35;0.10;;;22.20;1.00;;;;;;5081403;28;20127;-63
2023/07/19 12:16:45;;;;;;;2.38;0.10;;;21.90;1.00;;;;;;5064395;28;20740;-63
2023/07/19 12:19:11;;;;;;;0.50;0.10;;;22.40;1.00;;;;;;5063454;28;20570;-64
2023/07/19 12:21:38;;;;;;;1.17;0.10;;;22.60;1.00;;;;;;5063348;28;20260;-63
2023/07/19 12:24:04;;;;;;;1.50;0.10;;;22.90;1.00;;;;;;5081954;28;20050;-63
2023/07/19 12:26:30;;;;;;;1.05;0.10;;;23.20;1.00;;;;;;5080614;28;20147;-63
2023/07/19 12:28:56;;;;;;;1.35;0.10;;;23.60;1.00;;;;;;5047001;28;20103;-64
2023/07/19 12:31:22;;;;;;;1.27;0.10;;;23.30;1.00;;;;;;5063634;28;20093;-64
2023/07/19 12:33:49;;;;;;;0.43;0.03;;;23.70;1.00;;;;;;5062959;28;20099;-64
2023/07/19 12:36:14;;;;;;;1.08;0.20;;;24.10;1.00;;;;;;5081779;28;20043;-63
2023/07/19 12:38:40;;;;;;;0.73;0.10;;;24.10;1.00;;;;;;5079958;28;20036;-64
2023/07/19 12:41:06;;;;;;;2.38;0.10;;;23.30;1.00;;;;;;5079393;28;20127;-64